Glen Haven, Wisconsin
Current Conditions -  °F | °C
As of 11:15 PM on Wednesday 22 Oct 2014 (Local Time) from KPDC Reporting Station
Broken Clouds Broken Clouds  
Wind Chill: 46°   Ceiling: 10000
Heat Index: 49°   Visibility: 10mi
Dew Point: 36°   Wind: 8mph
Humidity: 60%   Direction: 100°E
Pressure: 30.17"   Gusts: NA
Location:  42.83°N, 91.07°W
Report Text: KPDC 230415Z AUTO 10007KT 10SM BKN100 10/02 A3017 RMK AO2 T00960021
Loading
Personal Weather Stations






























Interactive Weather Map
Tropical Storm Tracking
New forecast layout! Learn more

10-Day Weather Forecast

Advertisements
Track Severe Weather on mobile